createdAt,value
2019-01-19T00:01:56.774Z,4.86
2019-01-19T00:04:59.958Z,4.68
2019-01-19T00:08:10.881Z,4.48
2019-01-19T00:11:22.308Z,4.55
2019-01-19T00:14:18.613Z,4.53
2019-01-19T00:17:28.089Z,4.53
2019-01-19T00:20:44.126Z,4.52
2019-01-19T00:24:03.955Z,4.32
2019-01-19T00:27:20.355Z,4.29
2019-01-19T00:30:20.657Z,4.33
2019-01-19T00:33:58.277Z,4.63
2019-01-19T00:37:01.642Z,4.77
2019-01-19T00:40:09.185Z,4.69
2019-01-19T00:43:18.194Z,4.40
2019-01-19T00:46:16.143Z,4.34
2019-01-19T00:49:10.327Z,4.21
2019-01-19T00:52:16.572Z,4.24
2019-01-19T00:55:21.477Z,4.13
2019-01-19T00:58:36.713Z,4.05
2019-01-19T01:01:52.184Z,4.11
2019-01-19T01:04:54.884Z,4.24
2019-01-19T01:08:12.010Z,4.10
2019-01-19T01:11:09.600Z,4.05
2019-01-19T01:14:32.387Z,4.20
2019-01-19T01:17:39.552Z,4.11
2019-01-19T01:20:41.386Z,4.23
2019-01-19T01:23:31.256Z,4.03
2019-01-19T01:26:28.610Z,4.08
2019-01-19T01:29:43.584Z,3.96
2019-01-19T01:32:34.361Z,4.14
2019-01-19T01:35:51.020Z,3.99
2019-01-19T01:39:12.398Z,3.85
2019-01-19T01:41:52.726Z,3.69
2019-01-19T01:44:43.052Z,3.59
2019-01-19T01:47:53.542Z,3.59
2019-01-19T01:50:49.053Z,3.80
2019-01-19T01:53:38.277Z,3.96
2019-01-19T01:56:14.372Z,4.02
2019-01-19T01:59:06.358Z,4.06
2019-01-19T02:02:08.452Z,4.09
2019-01-19T02:05:19.070Z,3.96
2019-01-19T02:08:25.677Z,3.98
2019-01-19T02:11:22.446Z,3.97
2019-01-19T02:14:13.430Z,4.02
2019-01-19T02:17:22.688Z,4.00
2019-01-19T02:20:21.356Z,4.03
2019-01-19T02:23:53.026Z,3.95
2019-01-19T02:26:46.290Z,4.03
2019-01-19T02:29:50.715Z,3.98
2019-01-19T02:33:08.353Z,3.91
2019-01-19T02:36:32.960Z,3.85
2019-01-19T02:39:44.317Z,3.85
2019-01-19T02:42:44.911Z,3.78
2019-01-19T02:45:37.843Z,3.79
2019-01-19T02:49:09.619Z,3.84
2019-01-19T02:52:23.111Z,3.79
2019-01-19T02:55:28.069Z,3.69
2019-01-19T02:58:32.982Z,3.47
2019-01-19T03:01:55.527Z,3.36
2019-01-19T03:04:47.305Z,3.23
2019-01-19T03:08:00.413Z,3.19
2019-01-19T03:11:06.081Z,3.28
2019-01-19T03:14:21.473Z,3.33
2019-01-19T03:17:24.867Z,3.41
2019-01-19T03:20:32.589Z,3.49
2019-01-19T03:23:36.382Z,3.58
2019-01-19T03:26:40.589Z,3.70
2019-01-19T03:29:42.963Z,3.79
2019-01-19T03:32:35.743Z,3.86
2019-01-19T03:35:41.887Z,3.89
2019-01-19T03:38:43.623Z,3.78
2019-01-19T03:41:54.076Z,3.72
2019-01-19T03:44:53.698Z,3.77
2019-01-19T03:47:55.882Z,3.82
2019-01-19T03:50:40.687Z,3.82
2019-01-19T03:53:27.414Z,3.85
2019-01-19T03:56:46.753Z,3.77
2019-01-19T03:59:30.692Z,3.82
2019-01-19T04:02:31.906Z,3.84
2019-01-19T04:05:30.727Z,3.88
2019-01-19T04:08:50.099Z,3.82
2019-01-19T04:12:05.034Z,3.78
2019-01-19T04:15:09.357Z,3.72
2019-01-19T04:18:13.542Z,3.50
2019-01-19T04:21:24.598Z,3.39
2019-01-19T04:24:02.143Z,3.30
2019-01-19T04:26:38.934Z,3.33
2019-01-19T04:29:08.501Z,3.38
2019-01-19T04:31:38.057Z,3.44
2019-01-19T04:34:07.732Z,3.54
2019-01-19T04:36:37.529Z,3.57
2019-01-19T04:39:11.748Z,3.62
2019-01-19T04:41:41.424Z,3.62
2019-01-19T04:44:10.937Z,3.69
2019-01-19T04:46:40.485Z,3.69
2019-01-19T04:49:10.934Z,3.58
2019-01-19T04:51:40.593Z,3.45
2019-01-19T04:54:10.094Z,3.45
2019-01-19T04:56:39.601Z,3.40
2019-01-19T04:59:10.380Z,3.37
2019-01-19T05:01:39.894Z,3.30
2019-01-19T05:04:09.410Z,3.19
2019-01-19T05:06:38.972Z,3.26
2019-01-19T05:09:09.544Z,3.25
2019-01-19T05:11:39.049Z,3.27
2019-01-19T05:14:08.592Z,3.22
2019-01-19T05:16:38.110Z,3.16
2019-01-19T05:19:07.609Z,3.00
2019-01-19T05:21:37.219Z,3.07
2019-01-19T05:24:06.805Z,3.09
2019-01-19T05:26:36.310Z,3.07
2019-01-19T05:29:06.238Z,3.06
2019-01-19T05:31:35.789Z,3.10
2019-01-19T05:34:05.437Z,3.24
2019-01-19T05:36:38.472Z,3.34
2019-01-19T05:39:08.636Z,3.56
2019-01-19T05:41:38.182Z,3.36
2019-01-19T05:44:07.769Z,3.02
2019-01-19T05:46:37.298Z,2.70
2019-01-19T05:49:06.837Z,2.60
2019-01-19T05:51:36.397Z,2.63
2019-01-19T05:54:06.054Z,2.67
2019-01-19T05:56:35.710Z,2.70
2019-01-19T05:59:05.286Z,2.76
2019-01-19T06:01:34.782Z,2.88
2019-01-19T06:04:04.700Z,3.01
2019-01-19T06:06:34.254Z,3.07
2019-01-19T06:09:05.192Z,3.17
2019-01-19T06:11:34.718Z,3.29
2019-01-19T06:14:04.286Z,3.24
2019-01-19T06:16:33.912Z,3.20
2019-01-19T06:19:03.625Z,3.33
2019-01-19T06:21:36.760Z,3.52
2019-01-19T06:24:06.347Z,3.70
2019-01-19T06:26:35.869Z,3.95
2019-01-19T06:29:06.471Z,3.85
2019-01-19T06:31:35.973Z,3.99
2019-01-19T06:34:05.679Z,4.08
2019-01-19T06:36:37.243Z,4.12
2019-01-19T06:39:09.442Z,4.19
2019-01-19T06:41:38.953Z,4.20
2019-01-19T06:44:08.503Z,4.36
2019-01-19T06:46:38.008Z,4.47
2019-01-19T06:49:07.539Z,4.39
2019-01-19T06:51:38.414Z,4.46
2019-01-19T06:54:08.157Z,4.68
2019-01-19T06:56:37.686Z,4.84
2019-01-19T06:59:07.263Z,5.14
2019-01-19T07:01:36.759Z,5.46
2019-01-19T07:04:06.347Z,5.22
2019-01-19T07:06:35.906Z,5.11
2019-01-19T07:09:08.337Z,5.43
2019-01-19T07:11:38.413Z,5.71
2019-01-19T07:14:07.927Z,5.88
2019-01-19T07:16:37.442Z,6.00
2019-01-19T07:19:06.996Z,6.07
2019-01-19T07:21:36.492Z,6.42
2019-01-19T07:24:06.016Z,6.18
2019-01-19T07:26:35.586Z,6.61
2019-01-19T07:29:05.097Z,6.79
2019-01-19T07:31:34.677Z,7.04
2019-01-19T07:34:04.243Z,7.36
2019-01-19T07:36:33.748Z,7.55
2019-01-19T07:39:03.513Z,7.72
2019-01-19T07:41:34.273Z,7.77
2019-01-19T07:44:05.300Z,7.61
2019-01-19T07:46:35.534Z,7.59
2019-01-19T07:49:05.087Z,7.63
2019-01-19T07:51:34.621Z,7.81
2019-01-19T07:54:05.779Z,8.06
2019-01-19T07:56:35.288Z,8.16
2019-01-19T07:59:04.802Z,8.29
2019-01-19T08:01:34.373Z,8.31
2019-01-19T08:04:03.908Z,8.26
2019-01-19T08:06:33.427Z,8.26
2019-01-19T08:09:03.981Z,8.52
2019-01-19T08:11:33.487Z,8.58
2019-01-19T08:14:02.993Z,8.41
2019-01-19T08:16:32.540Z,8.31
2019-01-19T08:19:02.044Z,7.95
2019-01-19T08:21:31.546Z,8.07
2019-01-19T08:24:01.114Z,8.23
2019-01-19T08:26:30.726Z,8.30
2019-01-19T08:29:00.240Z,8.48
2019-01-19T08:31:29.794Z,8.64
2019-01-19T08:33:59.339Z,8.71
2019-01-19T08:36:28.922Z,8.54
2019-01-19T08:38:59.789Z,8.20
2019-01-19T08:41:29.285Z,8.28
2019-01-19T08:44:02.987Z,8.29
2019-01-19T08:46:32.491Z,8.09
2019-01-19T08:49:01.998Z,8.20
2019-01-19T08:51:31.569Z,8.43
2019-01-19T08:54:01.090Z,8.47
2019-01-19T08:56:30.602Z,8.45
2019-01-19T08:59:00.178Z,8.38
2019-01-19T09:01:29.815Z,8.60
2019-01-19T09:03:59.327Z,8.50
2019-01-19T09:06:30.291Z,8.41
2019-01-19T09:08:59.796Z,8.22
2019-01-19T09:11:29.350Z,8.45
2019-01-19T09:13:58.916Z,8.60
2019-01-19T09:16:28.437Z,8.60
2019-01-19T09:18:57.940Z,8.64
2019-01-19T09:21:28.737Z,8.84
2019-01-19T09:24:15.246Z,8.74
2019-01-19T09:26:44.797Z,8.84
2019-01-19T09:29:14.293Z,8.33
2019-01-19T09:31:44.786Z,8.27
2019-01-19T09:34:14.436Z,8.39
2019-01-19T09:36:43.948Z,8.43
2019-01-19T09:39:13.581Z,8.44
2019-01-19T09:41:43.188Z,8.53
2019-01-19T09:44:12.798Z,8.59
2019-01-19T09:46:42.813Z,8.79
2019-01-19T09:49:12.545Z,8.76
2019-01-19T09:51:43.534Z,8.50
2019-01-19T09:54:13.046Z,8.43
2019-01-19T09:56:42.558Z,8.38
2019-01-19T09:59:12.108Z,8.43
2019-01-19T10:01:41.631Z,8.69
2019-01-19T10:04:11.163Z,8.85
2019-01-19T10:06:40.705Z,8.77
2019-01-19T10:09:10.226Z,8.76
2019-01-19T10:11:40.029Z,8.66
2019-01-19T10:14:10.938Z,8.31
2019-01-19T10:16:40.487Z,8.44
2019-01-19T10:19:09.980Z,8.52
2019-01-19T10:21:39.498Z,8.51
2019-01-19T10:24:10.403Z,8.41
2019-01-19T10:26:39.914Z,8.52
2019-01-19T10:29:10.317Z,8.32
2019-01-19T10:31:39.875Z,8.15
2019-01-19T10:34:09.388Z,8.11
2019-01-19T10:36:38.897Z,8.08
2019-01-19T10:39:11.125Z,8.18
2019-01-19T10:41:41.265Z,8.33
2019-01-19T10:44:10.921Z,8.70
2019-01-19T10:46:40.468Z,8.97
2019-01-19T10:49:10.144Z,9.15
2019-01-19T10:51:39.785Z,9.17
2019-01-19T10:54:09.365Z,9.06
2019-01-19T10:56:38.896Z,8.80
2019-01-19T10:59:08.404Z,8.83
2019-01-19T11:01:38.059Z,8.53
2019-01-19T11:04:07.690Z,8.54
2019-01-19T11:06:37.202Z,8.66
2019-01-19T11:09:08.332Z,8.60
2019-01-19T11:11:37.835Z,8.01
2019-01-19T11:14:07.348Z,7.74
2019-01-19T11:16:36.911Z,7.76
2019-01-19T11:19:06.426Z,7.58
2019-01-19T11:21:35.994Z,7.35
2019-01-19T11:24:05.514Z,7.37
2019-01-19T11:26:35.028Z,7.33
2019-01-19T11:29:04.679Z,7.35
2019-01-19T11:31:34.198Z,7.18
2019-01-19T11:34:03.717Z,7.30
2019-01-19T11:36:34.501Z,7.42
2019-01-19T11:39:05.815Z,7.65
2019-01-19T11:41:35.322Z,7.39
2019-01-19T11:44:06.292Z,7.46
2019-01-19T11:46:35.848Z,7.84
2019-01-19T11:49:05.363Z,7.87
2019-01-19T11:51:34.937Z,7.46
2019-01-19T11:54:05.488Z,7.48
2019-01-19T11:56:34.989Z,7.53
2019-01-19T11:59:04.694Z,7.59
2019-01-19T12:01:34.245Z,7.54
2019-01-19T12:04:03.924Z,7.35
2019-01-19T12:06:33.444Z,7.43
2019-01-19T12:09:02.985Z,7.47
2019-01-19T12:11:33.946Z,7.38
2019-01-19T12:14:03.640Z,7.48
2019-01-19T12:16:34.224Z,7.18
2019-01-19T12:19:03.835Z,7.00
2019-01-19T12:21:33.338Z,7.02
2019-01-19T12:24:02.858Z,6.97
2019-01-19T12:26:32.420Z,7.04
2019-01-19T12:29:01.927Z,7.02
2019-01-19T12:31:31.450Z,6.89
2019-01-19T12:34:01.013Z,6.93
2019-01-19T12:36:31.986Z,6.87
2019-01-19T12:39:01.753Z,6.91
2019-01-19T12:41:31.263Z,6.71
2019-01-19T12:44:00.823Z,6.50
2019-01-19T12:46:30.340Z,6.44
2019-01-19T12:48:59.855Z,6.18
2019-01-19T12:51:29.400Z,6.18
2019-01-19T12:53:58.900Z,6.24
2019-01-19T12:56:28.420Z,6.23
2019-01-19T12:58:57.981Z,6.30
2019-01-19T13:01:27.487Z,6.22
2019-01-19T13:03:56.995Z,6.35
2019-01-19T13:06:55.062Z,6.30
2019-01-19T13:09:45.784Z,6.18
2019-01-19T13:12:38.298Z,6.17
2019-01-19T13:15:44.562Z,6.27
2019-01-19T13:18:57.208Z,6.17
2019-01-19T13:22:03.745Z,6.17
2019-01-19T13:25:14.370Z,6.22
2019-01-19T13:28:36.873Z,6.30
2019-01-19T13:31:49.303Z,6.33
2019-01-19T13:34:58.091Z,6.16
2019-01-19T13:38:26.578Z,6.03
2019-01-19T13:41:21.153Z,6.13
2019-01-19T13:44:21.138Z,6.13
2019-01-19T13:47:26.257Z,6.14
2019-01-19T13:50:38.517Z,6.00
2019-01-19T13:53:56.264Z,5.97
2019-01-19T13:57:15.567Z,5.89
2019-01-19T14:00:21.555Z,5.79
2019-01-19T14:03:35.325Z,5.80
2019-01-19T14:06:43.012Z,5.72
2019-01-19T14:09:54.796Z,5.73
2019-01-19T14:12:47.426Z,5.61
2019-01-19T14:15:59.937Z,5.49
2019-01-19T14:19:01.563Z,5.48
2019-01-19T14:22:21.521Z,5.40
2019-01-19T14:25:27.887Z,5.35
2019-01-19T14:28:37.268Z,5.38
2019-01-19T14:31:55.033Z,5.30
2019-01-19T14:35:14.339Z,5.32
2019-01-19T14:38:27.852Z,5.40
2019-01-19T14:41:53.445Z,5.44
2019-01-19T14:44:47.081Z,5.41
2019-01-19T14:48:00.625Z,5.32
2019-01-19T14:51:21.977Z,5.32
2019-01-19T14:54:24.652Z,5.32
2019-01-19T14:57:39.850Z,5.28
2019-01-19T15:00:58.270Z,5.28
2019-01-19T15:04:08.854Z,5.18
2019-01-19T15:07:17.785Z,5.32
2019-01-19T15:10:22.944Z,5.21
2019-01-19T15:13:33.681Z,5.23
2019-01-19T15:16:56.198Z,5.23
2019-01-19T15:20:31.957Z,5.12
2019-01-19T15:23:35.592Z,5.16
2019-01-19T15:26:42.592Z,5.25
2019-01-19T15:30:05.842Z,5.15
2019-01-19T15:33:21.690Z,5.09
2019-01-19T15:36:34.683Z,5.17
2019-01-19T15:39:44.613Z,5.24
2019-01-19T15:42:38.673Z,5.17
2019-01-19T15:45:56.780Z,5.16
2019-01-19T15:49:21.904Z,5.19
2019-01-19T15:52:26.284Z,5.19
2019-01-19T15:55:20.700Z,5.15
2019-01-19T15:58:37.544Z,5.09
2019-01-19T16:01:49.477Z,5.03
2019-01-19T16:04:59.940Z,5.05
2019-01-19T16:08:22.398Z,4.99
2019-01-19T16:11:29.209Z,4.97
2019-01-19T16:14:32.713Z,4.90
2019-01-19T16:17:52.108Z,4.91
2019-01-19T16:21:14.578Z,4.94
2019-01-19T16:24:07.408Z,4.98
2019-01-19T16:27:06.908Z,4.84
2019-01-19T16:30:38.619Z,4.84
2019-01-19T16:33:57.946Z,4.85
2019-01-19T16:37:04.516Z,4.81
2019-01-19T16:40:11.198Z,4.80
2019-01-19T16:43:12.139Z,4.73
2019-01-19T16:46:25.232Z,4.78
2019-01-19T16:49:08.488Z,4.81
2019-01-19T16:52:11.141Z,4.71
2019-01-19T16:54:51.638Z,4.80
2019-01-19T16:57:51.790Z,4.72
2019-01-19T17:01:00.318Z,4.82
2019-01-19T17:04:18.037Z,4.83
2019-01-19T17:07:27.255Z,4.71
2019-01-19T17:10:08.617Z,4.77
2019-01-19T17:13:23.296Z,4.73
2019-01-19T17:16:29.256Z,4.75
2019-01-19T17:19:22.545Z,4.73
2019-01-19T17:22:20.117Z,4.74
2019-01-19T17:25:18.094Z,4.78
2019-01-19T17:28:35.230Z,4.79
2019-01-19T17:31:35.242Z,4.75
2019-01-19T17:34:29.449Z,4.67
2019-01-19T17:37:48.132Z,4.68
2019-01-19T17:41:05.540Z,4.63
2019-01-19T17:44:04.537Z,4.63
2019-01-19T17:46:57.145Z,4.65
2019-01-19T17:49:58.418Z,4.64
2019-01-19T17:53:05.300Z,4.69
2019-01-19T17:55:51.838Z,4.71
2019-01-19T17:59:11.477Z,4.69
2019-01-19T18:02:26.956Z,4.66
2019-01-19T18:05:45.521Z,4.66
2019-01-19T18:08:57.262Z,4.70
2019-01-19T18:11:55.288Z,4.71
2019-01-19T18:15:15.195Z,4.69
2019-01-19T18:18:08.460Z,4.63
2019-01-19T18:21:20.365Z,4.63
2019-01-19T18:24:25.922Z,4.71
2019-01-19T18:27:41.715Z,4.77
2019-01-19T18:31:06.927Z,4.63
2019-01-19T18:33:57.870Z,4.45
2019-01-19T18:36:54.761Z,4.53
2019-01-19T18:39:34.509Z,4.46
2019-01-19T18:42:44.256Z,4.47
2019-01-19T18:45:43.634Z,4.42
2019-01-19T18:48:51.412Z,4.43
2019-01-19T18:51:50.421Z,4.49
2019-01-19T18:55:00.232Z,4.64
2019-01-19T18:58:12.156Z,4.60
2019-01-19T19:01:11.749Z,4.65
2019-01-19T19:04:17.589Z,4.63
2019-01-19T19:07:26.433Z,4.70
2019-01-19T19:10:58.156Z,4.67
2019-01-19T19:13:39.821Z,4.86
2019-01-19T19:16:56.488Z,4.90
2019-01-19T19:19:51.127Z,4.99
2019-01-19T19:22:51.561Z,4.98
2019-01-19T19:26:09.187Z,4.97
2019-01-19T19:29:17.610Z,4.99
2019-01-19T19:32:22.883Z,5.09
2019-01-19T19:35:18.403Z,5.09
2019-01-19T19:38:36.817Z,5.09
2019-01-19T19:41:41.921Z,5.08
2019-01-19T19:44:53.476Z,5.16
2019-01-19T19:48:01.030Z,5.19
2019-01-19T19:51:03.340Z,5.21
2019-01-19T19:53:32.901Z,5.18
2019-01-19T19:56:00.554Z,5.16
2019-01-19T19:58:30.679Z,5.09
2019-01-19T20:01:00.446Z,5.07
2019-01-19T20:03:30.002Z,5.09
2019-01-19T20:05:59.521Z,5.11
2019-01-19T20:08:29.067Z,5.10
2019-01-19T20:10:58.894Z,5.04
2019-01-19T20:13:28.461Z,5.04
2019-01-19T20:15:58.050Z,5.05
2019-01-19T20:18:27.602Z,5.06
2019-01-19T20:20:57.113Z,5.08
2019-01-19T20:23:26.674Z,5.07
2019-01-19T20:25:56.218Z,5.13
2019-01-19T20:28:25.751Z,5.16
2019-01-19T20:30:55.314Z,5.10
2019-01-19T20:33:24.820Z,5.21
2019-01-19T20:35:54.331Z,5.12
2019-01-19T20:38:25.298Z,5.16
2019-01-19T20:40:54.809Z,5.13
2019-01-19T20:43:24.315Z,5.10
2019-01-19T20:45:53.886Z,5.09
2019-01-19T20:48:23.631Z,5.12
2019-01-19T20:50:53.135Z,5.23
2019-01-19T20:53:22.639Z,5.25
2019-01-19T20:55:52.303Z,5.29
2019-01-19T20:58:21.865Z,5.36
2019-01-19T21:00:51.530Z,5.38
2019-01-19T21:03:21.133Z,5.38
2019-01-19T21:05:50.800Z,5.41
2019-01-19T21:08:20.332Z,5.43
2019-01-19T21:10:49.837Z,5.44
2019-01-19T21:13:19.405Z,5.46
2019-01-19T21:15:48.909Z,5.49
2019-01-19T21:18:18.473Z,5.43
2019-01-19T21:20:48.030Z,5.51
2019-01-19T21:23:17.534Z,5.53
2019-01-19T21:25:47.081Z,5.60
2019-01-19T21:28:16.593Z,5.60
2019-01-19T21:30:46.328Z,5.54
2019-01-19T21:33:17.211Z,5.59
2019-01-19T21:35:46.714Z,5.62
2019-01-19T21:38:16.258Z,5.62
2019-01-19T21:40:45.755Z,5.70
2019-01-19T21:43:15.306Z,5.68
2019-01-19T21:45:44.804Z,5.62
2019-01-19T21:48:14.296Z,5.64
2019-01-19T21:50:45.057Z,5.61
2019-01-19T21:53:14.588Z,5.67
2019-01-19T21:55:44.304Z,5.73
2019-01-19T21:58:14.017Z,5.77
2019-01-19T22:00:43.635Z,5.80
2019-01-19T22:03:14.467Z,5.80
2019-01-19T22:05:49.597Z,5.77
2019-01-19T22:08:15.219Z,5.83
2019-01-19T22:10:46.457Z,5.82
2019-01-19T22:13:16.164Z,5.88
2019-01-19T22:15:45.656Z,5.93
2019-01-19T22:18:15.226Z,5.91
2019-01-19T22:20:44.729Z,5.96
2019-01-19T22:23:14.223Z,5.98
2019-01-19T22:25:44.057Z,6.02
2019-01-19T22:28:13.560Z,6.04
2019-01-19T22:30:43.067Z,6.05
2019-01-19T22:33:14.662Z,6.02
2019-01-19T22:35:44.379Z,6.09
2019-01-19T22:38:13.913Z,6.09
2019-01-19T22:40:44.675Z,6.13
2019-01-19T22:43:18.330Z,6.14
2019-01-19T22:45:47.827Z,6.16
2019-01-19T22:48:17.367Z,6.16
2019-01-19T22:50:46.864Z,6.19
2019-01-19T22:53:16.359Z,6.21
2019-01-19T22:55:45.909Z,6.23
2019-01-19T22:58:15.466Z,6.22
2019-01-19T23:01:02.828Z,6.23
2019-01-19T23:03:34.771Z,6.22
2019-01-19T23:06:04.823Z,6.18
2019-01-19T23:08:35.564Z,6.20
2019-01-19T23:11:05.224Z,6.20
2019-01-19T23:13:34.765Z,6.21
2019-01-19T23:16:04.760Z,6.25
2019-01-19T23:18:34.262Z,6.22
2019-01-19T23:21:03.834Z,6.25
2019-01-19T23:23:33.339Z,6.22
2019-01-19T23:26:03.697Z,6.30
2019-01-19T23:28:33.514Z,6.26
2019-01-19T23:31:03.057Z,6.26
2019-01-19T23:33:32.560Z,6.23
2019-01-19T23:36:02.169Z,6.26
2019-01-19T23:38:31.717Z,6.28
2019-01-19T23:41:08.694Z,6.26
2019-01-19T23:43:32.494Z,6.34
2019-01-19T23:46:02.071Z,6.30
2019-01-19T23:48:31.769Z,6.29
2019-01-19T23:51:01.310Z,6.30
2019-01-19T23:53:30.870Z,6.33
2019-01-19T23:56:00.403Z,6.39
2019-01-19T23:58:29.940Z,6.39
